sim
Sign-in with your pilot id or email,
or register
Callsign
Passwort

Schedule Details

Flight Number: OEO7371
Departure: Toronto Pearson International Airport (CYYZ) at 00:00
Arrival: Munich Airport (EDDM) at 08:20

Weather Information
Getting current METAR information for CYYZ 221700Z 14008KT 15SM FEW230 19/09 A3017 RMK CI1 SLP218 DENSITY ALT 900FT
Getting current METAR information for EDDM 221750Z VRB01KT 9999 FEW050TCU 18/15 Q1010 NOSIG

Schedule Frequency

Route Map